Time;durP1;ratioP1;P1;durP2;ratioP2;P2;SDS_P1;SDS_P2;PMS_P1;PMS_P2;Temp;Humidity;BMP_temperature;BMP_pressure;BME280_temperature;BME280_humidity;BME280_pressure;Samples;Min_cycle;Max_cycle;Signal;HPM_P1;HPM_P2
2021/09/15 00:00:07;;;;;;;;;;;;;;;18.43;76.96;99495.69;5016022;28;19967;-63
2021/09/15 00:02:54;;;;;;;;;;;;;;;18.44;76.93;99494.78;5015460;28;19929;-63
2021/09/15 00:05:41;;;;;;;;;;;;;;;18.45;76.96;99491.22;5016592;28;20438;-63
2021/09/15 00:08:31;;;;;;;;;;;;;;;18.45;76.85;99488.59;5016269;28;19945;-63
2021/09/15 00:11:17;;;;;;;;;;;;;;;18.45;77.08;99485.97;5015760;28;19979;-64
2021/09/15 00:14:10;;;;;;;;;;;;;;;18.45;77.04;99482.50;5016752;28;19929;-64
2021/09/15 00:17:00;;;;;;;;;;;;;;;18.44;77.06;99476.41;5015917;28;19929;-63
2021/09/15 00:19:44;;;;;;;;;;;;;;;18.44;76.91;99476.41;5015613;28;19928;-63
2021/09/15 00:22:29;;;;;;;;;;;;;;;18.44;76.86;99473.78;5016192;28;19929;-64
2021/09/15 00:25:18;;;;;;;;;;;;;;;18.43;76.87;99466.81;5015958;28;20012;-64
2021/09/15 00:28:03;;;;;;;;;;;;;;;18.44;77.00;99460.66;5015359;28;19968;-63
2021/09/15 00:30:47;;;;;;;;;;;;;;;18.45;77.08;99458.91;5016174;28;19932;-64
2021/09/15 00:33:33;;;;;;;;;;;;;;;18.44;76.91;99463.28;5015883;28;19971;-64
2021/09/15 00:36:17;;;;;;;;;;;;;;;18.44;76.99;99452.81;5015492;28;19927;-64
2021/09/15 00:39:01;;;;;;;;;;;;;;;18.45;77.14;99459.75;5016190;28;19929;-64
2021/09/15 00:41:45;;;;;;;;;;;;;;;18.43;76.94;99461.56;5015871;28;20300;-63
2021/09/15 00:44:29;;;;;;;;;;;;;;;18.44;77.11;99459.78;5015916;28;19928;-64
2021/09/15 00:47:13;;;;;;;;;;;;;;;18.44;76.96;99449.31;5015812;28;20292;-64
2021/09/15 00:50:00;;;;;;;;;;;;;;;18.45;77.24;99451.03;5015788;28;19945;-64
2021/09/15 00:52:49;;;;;;;;;;;;;;;18.44;77.35;99450.19;5015145;28;19928;-64
2021/09/15 00:55:34;;;;;;;;;;;;;;;18.46;77.47;99442.25;5014535;28;19928;-64
2021/09/15 00:58:23;;;;;;;;;;;;;;;18.45;77.40;99440.53;5015689;28;19964;-64
2021/09/15 01:01:10;;;;;;;;;;;;;;;18.44;77.27;99434.44;5014091;28;20434;-64
2021/09/15 01:03:55;;;;;;;;;;;;;;;18.43;77.04;99430.09;5015060;28;19928;-64
2021/09/15 01:06:39;;;;;;;;;;;;;;;18.45;77.18;99430.03;5015820;28;19928;-64
2021/09/15 01:09:29;;;;;;;;;;;;;;;18.43;77.07;99432.72;5014867;28;19929;-63
2021/09/15 01:12:16;;;;;;;;;;;;;;;18.44;77.22;99436.19;5014229;28;19964;-63
2021/09/15 01:15:00;;;;;;;;;;;;;;;18.43;77.37;99427.47;5014379;28;19928;-63
2021/09/15 01:17:44;;;;;;;;;;;;;;;18.44;77.42;99434.44;5014789;28;19976;-65
2021/09/15 01:20:31;;;;;;;;;;;;;;;18.42;77.21;99431.00;5015084;28;19967;-64
2021/09/15 01:23:15;;;;;;;;;;;;;;;18.42;77.34;99425.75;5015126;28;20408;-63
2021/09/15 01:26:02;;;;;;;;;;;;;;;18.41;77.58;99414.38;5014753;28;19929;-63
2021/09/15 01:28:46;;;;;;;;;;;;;;;18.43;77.56;99414.34;5013749;28;20157;-63
2021/09/15 01:31:33;;;;;;;;;;;;;;;18.41;77.78;99408.28;5014952;28;19927;-63
2021/09/15 01:34:16;;;;;;;;;;;;;;;18.41;77.48;99403.88;5014274;28;19931;-63
2021/09/15 01:37:01;;;;;;;;;;;;;;;18.41;77.53;99403.88;5014706;28;19927;-62
2021/09/15 01:39:44;;;;;;;;;;;;;;;18.41;77.46;99403.88;5014815;28;20327;-64
2021/09/15 01:42:28;;;;;;;;;;;;;;;18.41;77.60;99409.13;5014200;28;20372;-63
2021/09/15 01:45:12;;;;;;;;;;;;;;;18.42;77.71;99400.34;5015121;28;19928;-63
2021/09/15 01:47:56;;;;;;;;;;;;;;;18.41;77.53;99403.88;5014205;28;19933;-64
2021/09/15 01:50:40;;;;;;;;;;;;;;;18.41;77.63;99392.53;5014657;28;20396;-63
2021/09/15 01:53:23;;;;;;;;;;;;;;;18.40;77.78;99393.44;5014956;28;20012;-63
2021/09/15 01:56:07;;;;;;;;;;;;;;;18.40;77.59;99403.94;5014326;28;19929;-63
2021/09/15 01:58:51;;;;;;;;;;;;;;;18.40;77.72;99403.94;5014520;28;19972;-63
2021/09/15 02:01:35;;;;;;;;;;;;;;;18.40;77.73;99396.06;5013100;28;19968;-62
2021/09/15 02:04:19;;;;;;;;;;;;;;;18.40;77.73;99393.44;5013502;28;19928;-63
2021/09/15 02:07:03;;;;;;;;;;;;;;;18.39;77.77;99399.59;5014663;28;19928;-64
2021/09/15 02:09:47;;;;;;;;;;;;;;;18.38;77.88;99390.84;5013329;28;19928;-64
2021/09/15 02:12:31;;;;;;;;;;;;;;;18.38;77.91;99379.50;5013414;28;19997;-64
2021/09/15 02:15:15;;;;;;;;;;;;;;;18.40;77.93;99382.94;5014148;28;19928;-64
2021/09/15 02:17:59;;;;;;;;;;;;;;;18.39;77.93;99376.81;5014349;28;20276;-64
2021/09/15 02:20:43;;;;;;;;;;;;;;;18.39;77.95;99376.81;5013804;28;19929;-63
2021/09/15 02:23:27;;;;;;;;;;;;;;;18.38;77.97;99374.25;5013961;28;19980;-64
2021/09/15 02:26:11;;;;;;;;;;;;;;;18.39;77.90;99373.34;5014303;28;20363;-64
2021/09/15 02:28:55;;;;;;;;;;;;;;;18.39;78.02;99368.94;5026709;28;19928;-64
2021/09/15 02:31:39;;;;;;;;;;;;;;;18.39;78.00;99360.25;5014413;28;19928;-64
2021/09/15 02:34:23;;;;;;;;;;;;;;;18.40;78.08;99356.72;5013962;28;19929;-64
2021/09/15 02:37:07;;;;;;;;;;;;;;;18.38;78.02;99351.50;5013619;28;20415;-63
2021/09/15 02:39:50;;;;;;;;;;;;;;;18.38;78.00;99350.66;5013328;28;20383;-63
2021/09/15 02:42:37;;;;;;;;;;;;;;;18.40;78.07;99343.59;5014199;28;20400;-62
2021/09/15 02:45:21;;;;;;;;;;;;;;;18.40;78.15;99344.44;5013477;28;19933;-64
2021/09/15 02:48:06;;;;;;;;;;;;;;;18.40;78.26;99349.69;5013464;28;20299;-63
2021/09/15 02:50:49;;;;;;;;;;;;;;;18.40;78.29;99354.94;5013800;28;20048;-64
2021/09/15 02:53:33;;;;;;;;;;;;;;;18.40;78.15;99362.81;5013601;28;20403;-63
2021/09/15 02:56:18;;;;;;;;;;;;;;;18.40;78.17;99354.09;5013894;28;20451;-63
2021/09/15 02:59:01;;;;;;;;;;;;;;;18.39;78.16;99353.22;5013107;28;19929;-63
2021/09/15 03:01:45;;;;;;;;;;;;;;;18.39;78.19;99349.75;5013708;28;19928;-62
2021/09/15 03:04:29;;;;;;;;;;;;;;;18.38;78.13;99335.75;5014155;28;19943;-62
2021/09/15 03:07:13;;;;;;;;;;;;;;;18.38;77.96;99332.28;5026686;28;20395;-63
2021/09/15 03:09:57;;;;;;;;;;;;;;;18.37;78.00;99327.94;5026942;28;19967;-63
2021/09/15 03:12:41;;;;;;;;;;;;;;;18.36;78.07;99324.47;5014151;28;20388;-63
2021/09/15 03:15:25;;;;;;;;;;;;;;;18.37;78.20;99327.94;5013738;28;19971;-63
2021/09/15 03:18:09;;;;;;;;;;;;;;;18.38;78.14;99332.28;5013387;28;20343;-64
2021/09/15 03:20:53;;;;;;;;;;;;;;;18.36;77.98;99337.59;5016004;28;19972;-63
2021/09/15 03:23:37;;;;;;;;;;;;;;;18.36;78.19;99334.09;5016966;28;20454;-63
2021/09/15 03:26:21;;;;;;;;;;;;;;;18.34;78.17;99336.75;5016877;28;19931;-63
2021/09/15 03:29:04;;;;;;;;;;;;;;;18.35;78.12;99337.59;5016754;28;19972;-63
2021/09/15 03:31:48;;;;;;;;;;;;;;;18.34;78.10;99335.88;5016737;28;20092;-63
2021/09/15 03:34:32;;;;;;;;;;;;;;;18.34;78.07;99333.25;5017400;28;19929;-63
2021/09/15 03:37:16;;;;;;;;;;;;;;;18.33;77.93;99335.03;5017544;28;19932;-63
2021/09/15 03:40:00;;;;;;;;;;;;;;;18.34;78.21;99328.00;5016911;28;19967;-64
2021/09/15 03:42:44;;;;;;;;;;;;;;;18.33;78.17;99324.53;5016596;28;20405;-63
2021/09/15 03:45:28;;;;;;;;;;;;;;;18.32;78.25;99330.69;5017085;28;19929;-64
2021/09/15 03:48:11;;;;;;;;;;;;;;;18.33;78.15;99332.41;5017152;28;19944;-64
2021/09/15 03:50:55;;;;;;;;;;;;;;;18.32;78.11;99328.06;5017171;28;19929;-64
2021/09/15 03:53:39;;;;;;;;;;;;;;;18.33;78.21;99328.91;5016656;28;20459;-64
2021/09/15 03:56:23;;;;;;;;;;;;;;;18.33;78.24;99335.03;5017141;28;20009;-63
2021/09/15 03:59:07;;;;;;;;;;;;;;;18.34;78.29;99330.63;5016979;28;19975;-63
2021/09/15 04:01:51;;;;;;;;;;;;;;;18.34;78.25;99328.91;5016707;28;19983;-63
2021/09/15 04:04:35;;;;;;;;;;;;;;;18.34;78.25;99336.75;5016549;28;19928;-63
2021/09/15 04:07:19;;;;;;;;;;;;;;;18.35;78.30;99332.34;5016905;28;20005;-63
2021/09/15 04:10:03;;;;;;;;;;;;;;;18.35;78.39;99332.34;5016352;28;19928;-63
2021/09/15 04:12:47;;;;;;;;;;;;;;;18.36;78.23;99328.84;5016319;28;19928;-63
2021/09/15 04:15:31;;;;;;;;;;;;;;;18.36;78.41;99326.22;5016731;28;20061;-63
2021/09/15 04:18:15;;;;;;;;;;;;;;;18.36;78.34;99320.97;5015442;28;19943;-62
2021/09/15 04:20:59;;;;;;;;;;;;;;;18.35;78.25;99319.25;5016151;28;19928;-63
2021/09/15 04:32:52;;;;;;;;;;;;;;;18.36;78.27;99323.59;5015425;28;20454;-63
2021/09/15 04:35:36;;;;;;;;;;;;;;;18.36;78.46;99319.22;5016480;28;20384;-63
2021/09/15 04:38:20;;;;;;;;;;;;;;;18.36;78.48;99321.84;5016082;28;19928;-64
2021/09/15 04:41:04;;;;;;;;;;;;;;;18.36;78.29;99318.34;5016095;28;19944;-64
2021/09/15 04:43:48;;;;;;;;;;;;;;;18.37;78.48;99322.69;5015598;28;19928;-64
2021/09/15 04:46:32;;;;;;;;;;;;;;;18.37;78.47;99317.44;5015375;28;19928;-63
2021/09/15 04:49:16;;;;;;;;;;;;;;;18.36;78.57;99321.84;5014361;28;19928;-64
2021/09/15 04:52:00;;;;;;;;;;;;;;;18.37;78.66;99314.81;5015831;28;19929;-64
2021/09/15 04:54:44;;;;;;;;;;;;;;;18.37;78.43;99313.03;5014635;28;19944;-64
2021/09/15 04:57:28;;;;;;;;;;;;;;;18.37;78.49;99317.44;5015704;28;19975;-64
2021/09/15 05:00:12;;;;;;;;;;;;;;;18.36;78.55;99315.72;5015578;28;20005;-64
2021/09/15 05:02:56;;;;;;;;;;;;;;;18.35;78.62;99320.13;5015424;28;20095;-64
2021/09/15 05:05:41;;;;;;;;;;;;;;;18.35;78.67;99319.25;5015084;28;20451;-64
2021/09/15 05:08:24;;;;;;;;;;;;;;;18.36;78.75;99328.84;5015332;28;19952;-63
2021/09/15 05:11:11;;;;;;;;;;;;;;;18.36;78.79;99329.72;5014048;28;19929;-63
2021/09/15 05:13:55;;;;;;;;;;;;;;;18.36;78.79;99324.47;5014938;28;19993;-63
2021/09/15 05:16:39;;;;;;;;;;;;;;;18.37;78.75;99322.69;5014269;28;19928;-63
2021/09/15 05:19:26;;;;;;;;;;;;;;;18.37;78.77;99320.06;5015353;28;19968;-62
2021/09/15 05:22:10;;;;;;;;;;;;;;;18.36;78.78;99326.22;5014729;28;19971;-64
2021/09/15 05:24:54;;;;;;;;;;;;;;;18.35;78.56;99328.00;5015012;28;20300;-64
2021/09/15 05:27:41;;;;;;;;;;;;;;;18.36;78.65;99334.97;5014780;28;20375;-64
2021/09/15 05:30:26;;;;;;;;;;;;;;;18.36;78.86;99329.72;5015149;28;20348;-64
2021/09/15 05:33:12;;;;;;;;;;;;;;;18.37;78.79;99335.81;5015254;28;19976;-64
2021/09/15 05:35:56;;;;;;;;;;;;;;;18.36;78.92;99331.47;5014836;28;19928;-64
2021/09/15 05:38:40;;;;;;;;;;;;;;;18.36;78.70;99339.34;5015091;28;19929;-64
2021/09/15 05:41:23;;;;;;;;;;;;;;;18.37;78.86;99335.81;5015156;28;19928;-64
2021/09/15 05:44:07;;;;;;;;;;;;;;;18.37;78.93;99333.19;5013605;28;19929;-64
2021/09/15 05:46:51;;;;;;;;;;;;;;;18.36;79.00;99331.47;5014701;28;20396;-64
2021/09/15 05:49:38;;;;;;;;;;;;;;;18.37;79.00;99339.28;5013377;28;20451;-64
2021/09/15 05:52:22;;;;;;;;;;;;;;;18.37;78.95;99343.69;5014897;28;19927;-64
2021/09/15 05:55:06;;;;;;;;;;;;;;;18.37;79.12;99348.91;5014748;28;19929;-64
2021/09/15 05:57:53;;;;;;;;;;;;;;;18.37;78.75;99348.91;5014139;28;20474;-64
2021/09/15 06:00:37;;;;;;;;;;;;;;;18.38;78.92;99355.91;5014134;28;19928;-64
2021/09/15 06:03:21;;;;;;;;;;;;;;;18.38;78.83;99355.91;5012952;28;20012;-64
2021/09/15 06:06:05;;;;;;;;;;;;;;;18.37;78.92;99362.88;5014833;28;19968;-64
2021/09/15 06:08:49;;;;;;;;;;;;;;;18.38;79.08;99361.13;5013876;28;19976;-64
2021/09/15 06:11:32;;;;;;;;;;;;;;;18.39;79.07;99370.72;5014539;28;19928;-63
2021/09/15 06:14:19;;;;;;;;;;;;;;;18.39;79.12;99368.09;5014107;28;19996;-63
2021/09/15 06:17:06;;;;;;;;;;;;;;;18.39;78.90;99368.94;5027364;28;20455;-63
2021/09/15 06:19:53;;;;;;;;;;;;;;;18.40;79.01;99368.06;5013523;28;19928;-63
2021/09/15 06:22:37;;;;;;;;;;;;;;;18.40;79.10;99369.81;5014640;28;19987;-64
2021/09/15 06:25:23;;;;;;;;;;;;;;;18.39;79.05;99368.94;5014542;28;19952;-64
2021/09/15 06:28:07;;;;;;;;;;;;;;;18.40;78.96;99375.91;5013895;28;19932;-64
2021/09/15 06:30:51;;;;;;;;;;;;;;;18.41;78.92;99374.19;5014103;28;19928;-64
2021/09/15 06:33:38;;;;;;;;;;;;;;;18.43;79.19;99377.63;5014442;28;19976;-64
2021/09/15 06:36:25;;;;;;;;;;;;;;;18.42;79.19;99382.00;5013309;28;19976;-64
2021/09/15 06:39:12;;;;;;;;;;;;;;;18.41;78.91;99375.03;5014368;28;19928;-64
2021/09/15 06:41:56;;;;;;;;;;;;;;;18.43;79.15;99372.38;5013926;28;19929;-63
2021/09/15 06:44:40;;;;;;;;;;;;;;;18.44;79.25;99381.09;5014001;28;19954;-62
2021/09/15 06:47:24;;;;;;;;;;;;;;;18.43;79.01;99377.63;5013873;28;19929;-64
2021/09/15 06:50:12;;;;;;;;;;;;;;;18.44;79.23;99374.09;5012605;28;19991;-63
2021/09/15 06:52:56;;;;;;;;;;;;;;;18.44;79.17;99378.47;5012956;28;19929;-63
2021/09/15 06:55:40;;;;;;;;;;;;;;;18.45;79.26;99381.03;5016772;28;19984;-63
2021/09/15 06:58:27;;;;;;;;;;;;;;;18.47;79.24;99381.00;5017926;28;19975;-63
2021/09/15 07:01:14;;;;;;;;;;;;;;;18.46;79.34;99385.38;5017459;28;19927;-62
2021/09/15 07:03:58;;;;;;;;;;;;;;;18.45;79.30;99388.91;5017054;28;19976;-63
2021/09/15 07:06:42;;;;;;;;;;;;;;;18.45;79.39;99386.28;5017961;28;19927;-63
2021/09/15 07:09:26;;;;;;;;;;;;;;;18.46;79.32;99385.38;5017935;28;19929;-62
2021/09/15 07:12:13;;;;;;;;;;;;;;;18.47;79.16;99386.25;5017556;28;20403;-63
2021/09/15 07:14:57;;;;;;;;;;;;;;;18.47;79.31;99394.13;5016375;28;19932;-63
2021/09/15 07:17:44;;;;;;;;;;;;;;;18.45;79.17;99388.91;5017769;28;20435;-63
2021/09/15 07:20:28;;;;;;;;;;;;;;;18.47;79.42;99396.75;5016835;28;20017;-64
2021/09/15 07:23:15;;;;;;;;;;;;;;;18.48;79.42;99393.22;5017604;28;19929;-64
2021/09/15 07:25:59;;;;;;;;;;;;;;;18.48;79.45;99399.31;5016687;28;20352;-63
2021/09/15 07:28:43;;;;;;;;;;;;;;;18.47;79.39;99392.34;5030370;28;19967;-63
2021/09/15 07:31:26;;;;;;;;;;;;;;;18.47;79.30;99394.97;5017216;28;19955;-63
2021/09/15 07:34:11;;;;;;;;;;;;;;;18.48;79.23;99396.69;5016088;28;19929;-64
2021/09/15 07:36:55;;;;;;;;;;;;;;;18.48;79.28;99404.56;5016747;28;19944;-64
2021/09/15 07:39:41;;;;;;;;;;;;;;;18.47;79.25;99402.84;5016342;28;19929;-64
2021/09/15 07:42:25;;;;;;;;;;;;;;;18.49;79.43;99408.06;5015879;28;19975;-63
2021/09/15 07:45:12;;;;;;;;;;;;;;;18.49;79.52;99405.44;5017181;28;20418;-63
2021/09/15 07:47:58;;;;;;;;;;;;;;;18.49;79.52;99408.06;5016006;28;19928;-63
2021/09/15 07:50:48;;;;;;;;;;;;;;;18.47;79.22;99405.47;5015962;28;19928;-63
2021/09/15 07:53:35;;;;;;;;;;;;;;;18.48;79.16;99406.34;5015904;28;19971;-63
2021/09/15 07:56:19;;;;;;;;;;;;;;;18.48;79.47;99404.56;5015788;28;19928;-65
2021/09/15 07:59:04;;;;;;;;;;;;;;;18.48;79.50;99415.06;5017124;28;19929;-63
2021/09/15 08:01:49;;;;;;;;;;;;;;;18.48;79.51;99417.69;5015523;28;19999;-63
2021/09/15 08:04:36;;;;;;;;;;;;;;;18.48;79.60;99422.09;5016534;28;20403;-63
2021/09/15 08:07:20;;;;;;;;;;;;;;;18.49;79.41;99424.66;5014934;28;20451;-63
2021/09/15 08:10:04;;;;;;;;;;;;;;;18.48;79.63;99425.56;5016587;28;20442;-63
2021/09/15 08:12:48;;;;;;;;;;;;;;;18.49;79.37;99436.94;5016238;28;19929;-64
2021/09/15 08:15:32;;;;;;;;;;;;;;;18.48;79.56;99428.19;5016384;28;19928;-64
2021/09/15 08:18:16;;;;;;;;;;;;;;;18.46;79.67;99432.59;5015934;28;19928;-64
2021/09/15 08:21:00;;;;;;;;;;;;;;;18.46;79.53;99426.50;5016587;28;20033;-64
2021/09/15 08:23:44;;;;;;;;;;;;;;;18.44;79.29;99434.44;5016414;28;19928;-64
2021/09/15 08:26:28;;;;;;;;;;;;;;;18.42;79.59;99437.09;5015186;28;20296;-63
2021/09/15 08:29:12;;;;;;;;;;;;;;;18.42;79.63;99437.09;5016350;28;19980;-63
2021/09/15 08:31:56;;;;;;;;;;;;;;;18.44;79.46;99429.19;5016130;28;19928;-63
2021/09/15 08:34:39;;;;;;;;;;;;;;;18.44;79.71;99428.31;5016445;28;19948;-63
2021/09/15 08:37:23;;;;;;;;;;;;;;;18.44;79.61;99421.31;5015590;28;19928;-63
2021/09/15 08:40:18;;;;;;;;;;;;;;;18.45;79.76;99425.63;5014817;28;19932;-63
2021/09/15 08:43:05;;;;;;;;;;;;;;;18.47;79.58;99429.09;5014568;28;20301;-63
2021/09/15 08:45:54;;;;;;;;;;;;;;;18.44;79.66;99423.94;5014622;28;19979;-63
2021/09/15 08:48:40;;;;;;;;;;;;;;;18.44;79.48;99423.94;5014972;28;19967;-64
2021/09/15 08:51:32;;;;;;;;;;;;;;;18.44;79.57;99423.06;5014482;28;19928;-64
2021/09/15 08:54:22;;;;;;;;;;;;;;;18.46;79.60;99426.50;5015468;28;19928;-63
2021/09/15 08:57:13;;;;;;;;;;;;;;;18.44;79.66;99416.06;5014493;28;19928;-64
2021/09/15 08:59:59;;;;;;;;;;;;;;;18.46;79.68;99418.66;5014986;28;19932;-64
2021/09/15 09:02:55;;;;;;;;;;;;;;;18.46;79.67;99419.50;5014364;28;20387;-63
2021/09/15 09:05:47;;;;;;;;;;;;;;;18.45;79.54;99430.03;5014494;28;19929;-63
2021/09/15 09:08:37;;;;;;;;;;;;;;;18.45;79.31;99437.91;5014100;28;20376;-63
2021/09/15 09:11:27;;;;;;;;;;;;;;;18.46;79.60;99442.25;5014484;28;19980;-64
2021/09/15 09:14:14;;;;;;;;;;;;;;;18.47;79.64;99442.19;5014786;28;20427;-63
2021/09/15 09:17:06;;;;;;;;;;;;;;;18.48;79.54;99441.31;5014992;28;19928;-63
2021/09/15 09:20:10;;;;;;;;;;;;;;;18.49;79.41;99444.81;5014499;28;19928;-63
2021/09/15 09:23:00;;;;;;;;;;;;;;;18.50;79.68;99441.28;5014729;28;20003;-63
2021/09/15 09:25:56;;;;;;;;;;;;;;;18.50;79.61;99436.03;5014190;28;20013;-63
2021/09/15 09:28:41;;;;;;;;;;;;;;;18.51;79.58;99446.47;5014260;28;19971;-63
2021/09/15 09:31:32;;;;;;;;;;;;;;;18.50;79.62;99457.88;5014349;28;19928;-63
2021/09/15 09:34:19;;;;;;;;;;;;;;;18.51;79.49;99462.22;5028189;28;19929;-63
2021/09/15 09:37:09;;;;;;;;;;;;;;;18.51;79.58;99453.50;5013820;28;20024;-63
2021/09/15 09:39:57;;;;;;;;;;;;;;;18.51;79.47;99456.13;5015236;28;19929;-63
2021/09/15 09:42:42;;;;;;;;;;;;;;;18.51;79.26;99461.38;5014417;28;19927;-63
2021/09/15 09:45:28;;;;;;;;;;;;;;;18.50;79.45;99460.50;5014714;28;20335;-63
2021/09/15 09:48:30;;;;;;;;;;;;;;;18.50;79.28;99457.88;5014677;28;19947;-63
2021/09/15 09:51:24;;;;;;;;;;;;;;;18.51;79.40;99464.00;5013535;28;19928;-64
2021/09/15 09:54:12;;;;;;;;;;;;;;;18.52;79.31;99465.72;5013575;28;19944;-64
2021/09/15 09:56:57;;;;;;;;;;;;;;;18.51;79.28;99475.34;5013719;28;19980;-64
2021/09/15 09:59:45;;;;;;;;;;;;;;;18.52;79.33;99469.19;5013554;28;19928;-63
2021/09/15 10:02:30;;;;;;;;;;;;;;;18.52;79.37;99474.44;5013783;28;19929;-64
2021/09/15 10:05:15;;;;;;;;;;;;;;;18.52;79.37;99469.19;5013811;28;19972;-64
2021/09/15 10:08:03;;;;;;;;;;;;;;;18.53;79.18;99473.53;5014347;28;19967;-64
2021/09/15 10:10:48;;;;;;;;;;;;;;;18.51;79.19;99470.09;5013303;28;19976;-64
2021/09/15 10:13:32;;;;;;;;;;;;;;;18.52;79.27;99474.44;5014066;28;20435;-64
2021/09/15 10:16:21;;;;;;;;;;;;;;;18.52;79.45;99471.81;5014349;28;19928;-63
2021/09/15 10:19:09;;;;;;;;;;;;;;;18.53;79.21;99472.69;5013227;28;19928;-63
2021/09/15 10:21:58;;;;;;;;;;;;;;;18.52;79.57;99469.19;5013661;28;20499;-63
2021/09/15 10:24:48;;;;;;;;;;;;;;;18.53;79.31;99463.03;5013366;28;19968;-63
2021/09/15 10:27:50;;;;;;;;;;;;;;;18.54;79.54;99475.25;5013504;28;19929;-63
2021/09/15 10:30:41;;;;;;;;;;;;;;;18.55;79.28;99468.25;5013341;28;20020;-63
2021/09/15 10:33:37;;;;;;;;;;;;;;;18.52;79.19;99471.81;5013796;28;20304;-63
2021/09/15 10:36:21;;;;;;;;;;;;;;;18.53;79.38;99470.91;5012920;28;20400;-64
2021/09/15 10:39:09;;;;;;;;;;;;;;;18.52;79.26;99470.97;5013989;28;19929;-64
2021/09/15 10:41:53;;;;;;;;;;;;;;;18.54;79.46;99469.13;5013367;28;19943;-63
2021/09/15 10:44:56;;;;;;;;;;;;;;;18.53;79.41;99465.66;5014343;28;19989;-63
2021/09/15 10:47:56;;;;;;;;;;;;;;;18.55;79.24;99468.25;5013015;28;20053;-63
2021/09/15 10:50:40;;;;;;;;;;;;;;;18.54;79.20;99458.66;5012918;28;19929;-63
2021/09/15 10:53:33;;;;;;;;;;;;;;;18.56;79.24;99460.34;5013141;28;19945;-63
2021/09/15 10:56:33;;;;;;;;;;;;;;;18.56;79.19;99460.34;5013427;28;19952;-63
2021/09/15 10:59:37;;;;;;;;;;;;;;;18.55;79.14;99453.38;5013903;28;20339;-64
2021/09/15 11:02:42;;;;;;;;;;;;;;;18.56;79.11;99456.84;5012069;28;19933;-64
2021/09/15 11:05:26;;;;;;;;;;;;;;;18.56;79.29;99456.84;5013692;28;19928;-63
2021/09/15 11:08:12;;;;;;;;;;;;;;;18.56;79.15;99446.34;5014089;28;19928;-63
2021/09/15 11:10:56;;;;;;;;;;;;;;;18.57;79.04;99455.94;5013186;28;20289;-63
2021/09/15 11:13:40;;;;;;;;;;;;;;;18.59;79.33;99458.53;5014166;28;20330;-62
2021/09/15 11:16:34;;;;;;;;;;;;;;;18.58;79.24;99457.66;5013988;28;19928;-63
2021/09/15 11:19:26;;;;;;;;;;;;;;;18.59;79.31;99464.66;5012656;28;20434;-63
2021/09/15 11:22:10;;;;;;;;;;;;;;;18.60;79.04;99466.38;5012581;28;19928;-63
2021/09/15 11:24:57;;;;;;;;;;;;;;;18.61;79.28;99464.63;5013678;28;19949;-65
2021/09/15 11:27:46;;;;;;;;;;;;;;;18.61;79.19;99465.47;5013163;28;19929;-64
2021/09/15 11:30:33;;;;;;;;;;;;;;;18.61;79.30;99460.22;5012457;28;19975;-64
2021/09/15 11:33:24;;;;;;;;;;;;;;;18.61;79.18;99467.25;5012513;28;19931;-64
2021/09/15 11:36:10;;;;;;;;;;;;;;;18.62;79.12;99471.56;5013738;28;19936;-64
2021/09/15 11:38:54;;;;;;;;;;;;;;;18.62;79.12;99468.94;5012863;28;19929;-64
2021/09/15 11:41:38;;;;;;;;;;;;;;;18.61;79.15;99470.72;5016111;28;20032;-64
2021/09/15 11:44:24;;;;;;;;;;;;;;;18.62;79.37;99476.81;5017220;28;19948;-64
2021/09/15 11:47:08;;;;;;;;;;;;;;;18.64;79.31;99488.13;5015901;28;20348;-64
2021/09/15 11:49:51;;;;;;;;;;;;;;;18.63;79.12;99476.78;5017009;28;19929;-65
2021/09/15 11:52:40;;;;;;;;;;;;;;;18.63;79.29;99475.91;5016092;28;19928;-64
2021/09/15 11:55:24;;;;;;;;;;;;;;;18.63;79.14;99482.03;5016917;28;20395;-64
2021/09/15 11:58:08;;;;;;;;;;;;;;;18.63;79.00;99473.28;5016273;28;19944;-64
2021/09/15 12:00:53;;;;;;;;;;;;;;;18.63;79.10;99476.78;5016698;28;19929;-64
2021/09/15 12:03:37;;;;;;;;;;;;;;;18.64;79.23;99478.50;5016986;28;20277;-63
2021/09/15 12:06:21;;;;;;;;;;;;;;;18.63;79.11;99479.41;5017064;28;19953;-64
2021/09/15 12:09:06;;;;;;;;;;;;;;;18.64;79.04;99472.38;5016826;28;20342;-63
2021/09/15 12:11:54;;;;;;;;;;;;;;;18.65;79.31;99474.09;5016270;28;20300;-63
2021/09/15 12:14:38;;;;;;;;;;;;;;;18.64;79.06;99465.41;5016269;28;20071;-63
2021/09/15 12:17:22;;;;;;;;;;;;;;;18.63;79.24;99468.91;5016406;28;19932;-63
2021/09/15 12:20:07;;;;;;;;;;;;;;;18.63;79.11;99466.28;5016540;28;19928;-63
2021/09/15 12:22:52;;;;;;;;;;;;;;;18.65;79.05;99468.88;5015675;28;20443;-63
2021/09/15 12:25:37;;;;;;;;;;;;;;;18.65;79.31;99464.50;5016703;28;19983;-64
2021/09/15 12:28:22;;;;;;;;;;;;;;;18.68;79.09;99472.28;5014967;28;19932;-65
2021/09/15 12:31:14;;;;;;;;;;;;;;;18.69;79.11;99466.13;5016496;28;19944;-64
2021/09/15 12:34:01;;;;;;;;;;;;;;;18.71;79.12;99464.31;5015517;28;19928;-64
2021/09/15 12:36:48;;;;;;;;;;;;;;;18.71;79.24;99464.31;5015134;28;19945;-64
2021/09/15 12:39:44;;;;;;;;;;;;;;;18.74;79.21;99468.63;5015517;28;19968;-64
2021/09/15 12:42:35;;;;;;;;;;;;;;;18.74;79.01;99470.38;5014979;28;20479;-64
2021/09/15 12:45:19;;;;;;;;;;;;;;;18.74;78.98;99466.00;5015131;28;19928;-64
2021/09/15 12:48:03;;;;;;;;;;;;;;;18.75;79.05;99472.97;5015885;28;19928;-64
2021/09/15 12:50:55;;;;;;;;;;;;;;;18.75;79.00;99470.34;5015201;28;19959;-64
2021/09/15 12:53:43;;;;;;;;;;;;;;;18.76;78.92;99472.09;5014607;28;20292;-64
2021/09/15 12:56:34;;;;;;;;;;;;;;;18.75;79.12;99466.84;5016071;28;20095;-64
2021/09/15 12:59:32;;;;;;;;;;;;;;;18.75;79.16;99472.09;5015644;28;19928;-64
2021/09/15 13:02:24;;;;;;;;;;;;;;;18.75;79.01;99469.47;5014473;28;20403;-64
2021/09/15 13:05:08;;;;;;;;;;;;;;;18.75;79.13;99475.59;5014578;28;19928;-64
2021/09/15 13:07:55;;;;;;;;;;;;;;;18.76;79.03;99484.34;5028648;28;19929;-64
2021/09/15 13:10:39;;;;;;;;;;;;;;;18.76;78.99;99489.59;5014654;28;19964;-64
2021/09/15 13:13:26;;;;;;;;;;;;;;;18.75;78.97;99491.38;5015748;28;19968;-64
2021/09/15 13:16:10;;;;;;;;;;;;;;;18.73;78.94;99482.66;5014759;28;19987;-64
2021/09/15 13:18:54;;;;;;;;;;;;;;;18.73;79.02;99490.53;5015008;28;19928;-64
2021/09/15 13:21:40;;;;;;;;;;;;;;;18.73;79.09;99495.78;5015045;28;19996;-64
2021/09/15 13:24:24;;;;;;;;;;;;;;;18.71;79.09;99494.97;5015191;28;19928;-64
2021/09/15 13:27:08;;;;;;;;;;;;;;;18.72;78.97;99501.94;5014458;28;20412;-64
2021/09/15 13:29:54;;;;;;;;;;;;;;;18.71;78.91;99494.97;5014603;28;19948;-64
2021/09/15 13:32:39;;;;;;;;;;;;;;;18.72;78.91;99496.69;5014586;28;19928;-64
2021/09/15 13:35:28;;;;;;;;;;;;;;;18.71;78.87;99503.69;5014942;28;20040;-64
2021/09/15 13:38:18;;;;;;;;;;;;;;;18.70;78.86;99508.97;5013472;28;20372;-64
2021/09/15 13:41:02;;;;;;;;;;;;;;;18.69;78.83;99512.50;5014514;28;20072;-64
2021/09/15 13:43:46;;;;;;;;;;;;;;;18.67;78.91;99503.81;5014152;28;20387;-64
2021/09/15 13:46:34;;;;;;;;;;;;;;;18.66;78.97;99507.34;5014420;28;19928;-64
2021/09/15 13:49:19;;;;;;;;;;;;;;;18.65;78.78;99514.34;5013587;28;19971;-64
2021/09/15 13:52:03;;;;;;;;;;;;;;;18.64;78.72;99517.00;5014681;28;19928;-64
2021/09/15 13:54:53;;;;;;;;;;;;;;;18.64;78.84;99517.88;5013228;28;19995;-63
2021/09/15 13:57:37;;;;;;;;;;;;;;;18.63;78.89;99518.78;5014776;28;20304;-63
2021/09/15 14:00:26;;;;;;;;;;;;;;;18.62;78.88;99517.06;5014606;28;19928;-64
2021/09/15 14:03:10;;;;;;;;;;;;;;;18.61;78.78;99525.81;5014781;28;19928;-64
2021/09/15 14:05:56;;;;;;;;;;;;;;;18.61;78.81;99522.34;5013755;28;19928;-63
2021/09/15 14:08:40;;;;;;;;;;;;;;;18.61;79.01;99519.72;5013291;28;19928;-63
2021/09/15 14:11:30;;;;;;;;;;;;;;;18.61;78.83;99525.81;5014291;28;19928;-63
2021/09/15 14:14:14;;;;;;;;;;;;;;;18.59;78.63;99521.53;5013244;28;19967;-63
2021/09/15 14:16:58;;;;;;;;;;;;;;;18.59;78.76;99522.38;5013885;28;19979;-63
2021/09/15 14:19:42;;;;;;;;;;;;;;;18.58;78.68;99519.81;5014597;28;19929;-63
2021/09/15 14:22:31;;;;;;;;;;;;;;;18.59;78.72;99521.53;5014135;28;19928;-64
2021/09/15 14:25:15;;;;;;;;;;;;;;;18.59;78.66;99521.53;5012909;28;19928;-63
2021/09/15 14:28:02;;;;;;;;;;;;;;;18.59;78.66;99524.16;5014320;28;20015;-63
2021/09/15 14:30:46;;;;;;;;;;;;;;;18.59;78.71;99527.63;5014284;28;19953;-64
2021/09/15 14:33:31;;;;;;;;;;;;;;;18.60;78.65;99524.09;5013980;28;20347;-64